sensor_id;sensor_type;location;lat;lon;timestamp;temperature;humidity
13440;DHT22;6792;57.698;11.946;2023-10-31T00:00:45;12.80;53.00
13440;DHT22;6792;57.698;11.946;2023-10-31T00:03:15;12.80;53.00
13440;DHT22;6792;57.698;11.946;2023-10-31T00:05:44;12.70;52.90
13440;DHT22;6792;57.698;11.946;2023-10-31T00:08:13;12.70;53.00
13440;DHT22;6792;57.698;11.946;2023-10-31T00:10:43;12.70;53.00
13440;DHT22;6792;57.698;11.946;2023-10-31T00:13:14;12.70;53.00
13440;DHT22;6792;57.698;11.946;2023-10-31T00:15:43;12.60;53.00
13440;DHT22;6792;57.698;11.946;2023-10-31T00:18:12;12.60;53.10
13440;DHT22;6792;57.698;11.946;2023-10-31T00:20:41;12.70;53.20
13440;DHT22;6792;57.698;11.946;2023-10-31T00:23:11;12.60;53.10
13440;DHT22;6792;57.698;11.946;2023-10-31T00:25:40;12.60;53.10
13440;DHT22;6792;57.698;11.946;2023-10-31T00:28:09;12.60;53.10
13440;DHT22;6792;57.698;11.946;2023-10-31T00:30:39;12.60;53.10
13440;DHT22;6792;57.698;11.946;2023-10-31T00:33:15;12.60;53.00
13440;DHT22;6792;57.698;11.946;2023-10-31T00:35:44;12.50;53.00
13440;DHT22;6792;57.698;11.946;2023-10-31T00:38:14;12.50;53.20
13440;DHT22;6792;57.698;11.946;2023-10-31T00:40:47;12.50;52.70
13440;DHT22;6792;57.698;11.946;2023-10-31T00:43:17;12.50;53.20
13440;DHT22;6792;57.698;11.946;2023-10-31T00:45:46;12.50;53.30
13440;DHT22;6792;57.698;11.946;2023-10-31T00:48:16;12.50;53.40
13440;DHT22;6792;57.698;11.946;2023-10-31T00:50:45;12.50;53.20
13440;DHT22;6792;57.698;11.946;2023-10-31T00:53:15;12.40;53.20
13440;DHT22;6792;57.698;11.946;2023-10-31T00:55:44;12.40;53.20
13440;DHT22;6792;57.698;11.946;2023-10-31T00:58:14;12.40;53.20
13440;DHT22;6792;57.698;11.946;2023-10-31T01:03:27;12.40;52.70
13440;DHT22;6792;57.698;11.946;2023-10-31T01:05:56;12.40;53.30
13440;DHT22;6792;57.698;11.946;2023-10-31T01:08:26;12.40;53.20
13440;DHT22;6792;57.698;11.946;2023-10-31T01:10:55;12.40;53.20
13440;DHT22;6792;57.698;11.946;2023-10-31T01:13:24;12.40;53.20
13440;DHT22;6792;57.698;11.946;2023-10-31T01:15:54;12.30;53.20
13440;DHT22;6792;57.698;11.946;2023-10-31T01:18:23;12.30;53.20
13440;DHT22;6792;57.698;11.946;2023-10-31T01:20:52;12.20;53.20
13440;DHT22;6792;57.698;11.946;2023-10-31T01:23:21;12.10;52.70
13440;DHT22;6792;57.698;11.946;2023-10-31T01:25:51;12.10;53.30
13440;DHT22;6792;57.698;11.946;2023-10-31T01:28:21;12.10;53.30
13440;DHT22;6792;57.698;11.946;2023-10-31T01:30:50;12.00;53.30
13440;DHT22;6792;57.698;11.946;2023-10-31T01:33:19;12.00;53.30
13440;DHT22;6792;57.698;11.946;2023-10-31T01:35:48;12.00;53.30
13440;DHT22;6792;57.698;11.946;2023-10-31T01:38:18;12.00;53.30
13440;DHT22;6792;57.698;11.946;2023-10-31T01:43:34;12.00;52.70
13440;DHT22;6792;57.698;11.946;2023-10-31T01:46:04;12.00;53.30
13440;DHT22;6792;57.698;11.946;2023-10-31T01:48:34;11.90;53.20
13440;DHT22;6792;57.698;11.946;2023-10-31T01:51:05;11.90;53.20
13440;DHT22;6792;57.698;11.946;2023-10-31T01:53:35;11.90;53.20
13440;DHT22;6792;57.698;11.946;2023-10-31T01:56:06;11.80;53.20
13440;DHT22;6792;57.698;11.946;2023-10-31T01:58:37;11.80;53.10
13440;DHT22;6792;57.698;11.946;2023-10-31T02:01:06;11.70;53.00
13440;DHT22;6792;57.698;11.946;2023-10-31T02:03:35;11.70;53.00
13440;DHT22;6792;57.698;11.946;2023-10-31T02:06:06;11.70;53.10
13440;DHT22;6792;57.698;11.946;2023-10-31T02:08:35;11.70;52.60
13440;DHT22;6792;57.698;11.946;2023-10-31T02:11:05;11.70;53.00
13440;DHT22;6792;57.698;11.946;2023-10-31T02:13:36;11.70;53.10
13440;DHT22;6792;57.698;11.946;2023-10-31T02:16:07;11.70;53.10
13440;DHT22;6792;57.698;11.946;2023-10-31T02:18:36;11.70;53.00
13440;DHT22;6792;57.698;11.946;2023-10-31T02:21:06;11.70;53.00
13440;DHT22;6792;57.698;11.946;2023-10-31T02:23:35;11.60;53.00
13440;DHT22;6792;57.698;11.946;2023-10-31T02:26:05;11.60;53.00
13440;DHT22;6792;57.698;11.946;2023-10-31T02:28:34;11.70;53.00
13440;DHT22;6792;57.698;11.946;2023-10-31T02:31:03;11.60;53.00
13440;DHT22;6792;57.698;11.946;2023-10-31T02:33:33;11.60;52.90
13440;DHT22;6792;57.698;11.946;2023-10-31T02:36:04;11.70;52.90
13440;DHT22;6792;57.698;11.946;2023-10-31T02:38:33;11.70;52.90
13440;DHT22;6792;57.698;11.946;2023-10-31T02:41:03;11.60;52.80
13440;DHT22;6792;57.698;11.946;2023-10-31T02:43:32;11.60;53.40
13440;DHT22;6792;57.698;11.946;2023-10-31T02:46:01;11.60;52.80
13440;DHT22;6792;57.698;11.946;2023-10-31T02:48:31;11.60;52.80
13440;DHT22;6792;57.698;11.946;2023-10-31T02:51:02;11.60;52.80
13440;DHT22;6792;57.698;11.946;2023-10-31T02:53:32;11.60;52.80
13440;DHT22;6792;57.698;11.946;2023-10-31T02:56:01;11.50;52.10
13440;DHT22;6792;57.698;11.946;2023-10-31T02:58:31;11.60;52.70
13440;DHT22;6792;57.698;11.946;2023-10-31T03:01:01;11.50;52.60
13440;DHT22;6792;57.698;11.946;2023-10-31T03:03:30;11.40;53.10
13440;DHT22;6792;57.698;11.946;2023-10-31T03:05:59;11.40;52.70
13440;DHT22;6792;57.698;11.946;2023-10-31T03:08:29;11.40;52.60
13440;DHT22;6792;57.698;11.946;2023-10-31T03:10:58;11.40;52.70
13440;DHT22;6792;57.698;11.946;2023-10-31T03:13:28;11.30;52.70
13440;DHT22;6792;57.698;11.946;2023-10-31T03:15:57;11.30;52.60
13440;DHT22;6792;57.698;11.946;2023-10-31T03:18:26;11.30;52.60
13440;DHT22;6792;57.698;11.946;2023-10-31T03:20:57;11.30;52.80
13440;DHT22;6792;57.698;11.946;2023-10-31T03:23:26;11.30;52.80
13440;DHT22;6792;57.698;11.946;2023-10-31T03:25:55;11.20;52.60
13440;DHT22;6792;57.698;11.946;2023-10-31T03:28:24;11.30;52.70
13440;DHT22;6792;57.698;11.946;2023-10-31T03:30:54;11.20;52.60
13440;DHT22;6792;57.698;11.946;2023-10-31T03:33:24;11.20;52.60
13440;DHT22;6792;57.698;11.946;2023-10-31T03:35:53;11.20;52.60
13440;DHT22;6792;57.698;11.946;2023-10-31T03:38:22;11.10;52.70
13440;DHT22;6792;57.698;11.946;2023-10-31T03:40:52;11.10;52.70
13440;DHT22;6792;57.698;11.946;2023-10-31T03:43:21;11.10;53.30
13440;DHT22;6792;57.698;11.946;2023-10-31T03:45:51;11.10;52.80
13440;DHT22;6792;57.698;11.946;2023-10-31T03:48:22;11.10;52.60
13440;DHT22;6792;57.698;11.946;2023-10-31T03:50:52;11.10;52.60
13440;DHT22;6792;57.698;11.946;2023-10-31T03:53:22;11.10;53.20
13440;DHT22;6792;57.698;11.946;2023-10-31T03:55:53;11.10;52.60
13440;DHT22;6792;57.698;11.946;2023-10-31T03:58:23;11.10;52.60
13440;DHT22;6792;57.698;11.946;2023-10-31T04:00:54;11.00;52.60
13440;DHT22;6792;57.698;11.946;2023-10-31T04:03:24;11.00;52.60
13440;DHT22;6792;57.698;11.946;2023-10-31T04:05:54;11.00;52.60
13440;DHT22;6792;57.698;11.946;2023-10-31T04:08:35;11.00;52.70
13440;DHT22;6792;57.698;11.946;2023-10-31T04:11:05;11.00;52.70
13440;DHT22;6792;57.698;11.946;2023-10-31T04:13:34;11.00;52.60
13440;DHT22;6792;57.698;11.946;2023-10-31T04:16:05;11.00;52.60
13440;DHT22;6792;57.698;11.946;2023-10-31T04:18:34;11.00;52.70
13440;DHT22;6792;57.698;11.946;2023-10-31T04:21:05;11.00;52.60
13440;DHT22;6792;57.698;11.946;2023-10-31T04:23:35;10.90;52.10
13440;DHT22;6792;57.698;11.946;2023-10-31T04:26:05;11.00;52.70
13440;DHT22;6792;57.698;11.946;2023-10-31T04:28:35;11.00;52.60
13440;DHT22;6792;57.698;11.946;2023-10-31T04:31:05;11.00;52.70
13440;DHT22;6792;57.698;11.946;2023-10-31T04:33:34;11.00;52.10
13440;DHT22;6792;57.698;11.946;2023-10-31T04:36:04;11.00;52.70
13440;DHT22;6792;57.698;11.946;2023-10-31T04:38:33;10.90;52.70
13440;DHT22;6792;57.698;11.946;2023-10-31T04:41:04;10.90;52.60
13440;DHT22;6792;57.698;11.946;2023-10-31T04:43:34;10.90;52.60
13440;DHT22;6792;57.698;11.946;2023-10-31T04:46:04;10.90;52.60
13440;DHT22;6792;57.698;11.946;2023-10-31T04:48:33;10.90;52.70
13440;DHT22;6792;57.698;11.946;2023-10-31T04:51:04;10.90;52.70
13440;DHT22;6792;57.698;11.946;2023-10-31T04:53:33;10.90;52.20
13440;DHT22;6792;57.698;11.946;2023-10-31T04:56:03;10.90;52.20
13440;DHT22;6792;57.698;11.946;2023-10-31T04:58:34;10.90;52.50
13440;DHT22;6792;57.698;11.946;2023-10-31T05:01:08;10.80;52.50
13440;DHT22;6792;57.698;11.946;2023-10-31T05:03:37;10.80;52.60
13440;DHT22;6792;57.698;11.946;2023-10-31T05:06:10;10.70;53.20
13440;DHT22;6792;57.698;11.946;2023-10-31T05:08:42;10.70;52.70
13440;DHT22;6792;57.698;11.946;2023-10-31T05:11:13;10.70;52.80
13440;DHT22;6792;57.698;11.946;2023-10-31T05:13:42;10.70;52.80
13440;DHT22;6792;57.698;11.946;2023-10-31T05:16:12;10.70;52.70
13440;DHT22;6792;57.698;11.946;2023-10-31T05:18:42;10.70;52.70
13440;DHT22;6792;57.698;11.946;2023-10-31T05:23:54;10.60;52.00
13440;DHT22;6792;57.698;11.946;2023-10-31T05:26:23;10.60;52.60
13440;DHT22;6792;57.698;11.946;2023-10-31T05:28:53;10.60;52.60
13440;DHT22;6792;57.698;11.946;2023-10-31T05:31:23;10.60;52.70
13440;DHT22;6792;57.698;11.946;2023-10-31T05:33:52;10.60;52.70
13440;DHT22;6792;57.698;11.946;2023-10-31T05:36:23;10.60;52.70
13440;DHT22;6792;57.698;11.946;2023-10-31T05:39:14;10.60;52.80
13440;DHT22;6792;57.698;11.946;2023-10-31T05:41:44;10.60;52.80
13440;DHT22;6792;57.698;11.946;2023-10-31T05:44:14;10.60;52.80
13440;DHT22;6792;57.698;11.946;2023-10-31T05:46:45;10.60;52.90
13440;DHT22;6792;57.698;11.946;2023-10-31T05:49:14;10.60;52.80
13440;DHT22;6792;57.698;11.946;2023-10-31T05:51:53;10.60;52.80
13440;DHT22;6792;57.698;11.946;2023-10-31T05:54:26;10.50;52.20
13440;DHT22;6792;57.698;11.946;2023-10-31T05:56:56;10.50;52.80
13440;DHT22;6792;57.698;11.946;2023-10-31T05:59:29;10.50;52.80
13440;DHT22;6792;57.698;11.946;2023-10-31T06:01:58;10.50;52.90
13440;DHT22;6792;57.698;11.946;2023-10-31T06:04:28;10.50;53.00
13440;DHT22;6792;57.698;11.946;2023-10-31T06:09:39;10.50;52.40
13440;DHT22;6792;57.698;11.946;2023-10-31T06:12:09;10.50;53.00
13440;DHT22;6792;57.698;11.946;2023-10-31T06:14:40;10.50;53.00
13440;DHT22;6792;57.698;11.946;2023-10-31T06:17:10;10.50;52.90
13440;DHT22;6792;57.698;11.946;2023-10-31T06:19:39;10.60;53.00
13440;DHT22;6792;57.698;11.946;2023-10-31T06:22:18;10.60;52.90
13440;DHT22;6792;57.698;11.946;2023-10-31T06:27:36;10.60;52.40
13440;DHT22;6792;57.698;11.946;2023-10-31T06:30:16;10.60;53.00
13440;DHT22;6792;57.698;11.946;2023-10-31T06:32:50;10.60;53.00
13440;DHT22;6792;57.698;11.946;2023-10-31T06:38:35;10.50;52.90
13440;DHT22;6792;57.698;11.946;2023-10-31T06:41:08;10.50;52.30
13440;DHT22;6792;57.698;11.946;2023-10-31T06:44:23;10.50;52.30
13440;DHT22;6792;57.698;11.946;2023-10-31T06:50:47;10.50;52.90
13440;DHT22;6792;57.698;11.946;2023-10-31T06:53:16;10.50;53.00
13440;DHT22;6792;57.698;11.946;2023-10-31T06:55:47;10.50;53.00
13440;DHT22;6792;57.698;11.946;2023-10-31T06:58:16;10.50;52.40
13440;DHT22;6792;57.698;11.946;2023-10-31T07:00:45;10.50;53.00
13440;DHT22;6792;57.698;11.946;2023-10-31T07:03:15;10.50;53.00
13440;DHT22;6792;57.698;11.946;2023-10-31T07:05:45;10.50;53.00
13440;DHT22;6792;57.698;11.946;2023-10-31T07:08:20;10.50;53.00
13440;DHT22;6792;57.698;11.946;2023-10-31T07:16:00;10.60;52.50
13440;DHT22;6792;57.698;11.946;2023-10-31T07:18:31;10.50;52.40
13440;DHT22;6792;57.698;11.946;2023-10-31T07:21:01;10.60;52.60
13440;DHT22;6792;57.698;11.946;2023-10-31T07:23:30;10.60;53.00
13440;DHT22;6792;57.698;11.946;2023-10-31T07:26:00;10.60;53.00
13440;DHT22;6792;57.698;11.946;2023-10-31T07:28:32;10.60;52.90
13440;DHT22;6792;57.698;11.946;2023-10-31T07:31:02;10.60;53.00
13440;DHT22;6792;57.698;11.946;2023-10-31T07:33:32;10.50;52.90
13440;DHT22;6792;57.698;11.946;2023-10-31T07:36:01;10.50;53.00
13440;DHT22;6792;57.698;11.946;2023-10-31T07:38:31;10.60;53.00
13440;DHT22;6792;57.698;11.946;2023-10-31T07:41:01;10.50;53.00
13440;DHT22;6792;57.698;11.946;2023-10-31T07:43:33;10.50;53.10
13440;DHT22;6792;57.698;11.946;2023-10-31T07:46:03;10.50;53.00
13440;DHT22;6792;57.698;11.946;2023-10-31T07:48:32;10.50;53.00
13440;DHT22;6792;57.698;11.946;2023-10-31T07:51:02;10.50;53.00
13440;DHT22;6792;57.698;11.946;2023-10-31T07:53:32;10.60;53.10
13440;DHT22;6792;57.698;11.946;2023-10-31T07:56:01;10.60;53.20
13440;DHT22;6792;57.698;11.946;2023-10-31T07:58:30;10.60;53.20
13440;DHT22;6792;57.698;11.946;2023-10-31T08:01:00;10.60;53.10
13440;DHT22;6792;57.698;11.946;2023-10-31T08:03:29;10.60;53.10
13440;DHT22;6792;57.698;11.946;2023-10-31T08:05:59;10.60;53.20
13440;DHT22;6792;57.698;11.946;2023-10-31T08:08:28;10.60;53.20
13440;DHT22;6792;57.698;11.946;2023-10-31T08:10:58;10.60;53.20
13440;DHT22;6792;57.698;11.946;2023-10-31T08:13:27;10.60;53.20
13440;DHT22;6792;57.698;11.946;2023-10-31T08:15:56;10.70;53.30
13440;DHT22;6792;57.698;11.946;2023-10-31T08:18:26;10.70;53.20
13440;DHT22;6792;57.698;11.946;2023-10-31T08:20:55;10.70;53.20
13440;DHT22;6792;57.698;11.946;2023-10-31T08:23:24;10.70;53.20
13440;DHT22;6792;57.698;11.946;2023-10-31T08:25:54;10.70;53.20
13440;DHT22;6792;57.698;11.946;2023-10-31T08:28:24;10.70;52.60
13440;DHT22;6792;57.698;11.946;2023-10-31T08:30:53;10.70;53.10
13440;DHT22;6792;57.698;11.946;2023-10-31T08:33:22;10.70;52.60
13440;DHT22;6792;57.698;11.946;2023-10-31T08:35:52;10.70;53.20
13440;DHT22;6792;57.698;11.946;2023-10-31T08:38:21;10.70;53.00
13440;DHT22;6792;57.698;11.946;2023-10-31T08:40:50;10.70;53.00
13440;DHT22;6792;57.698;11.946;2023-10-31T08:43:20;12.20;53.20
13440;DHT22;6792;57.698;11.946;2023-10-31T08:45:50;10.80;53.10
13440;DHT22;6792;57.698;11.946;2023-10-31T08:48:19;10.80;53.00
13440;DHT22;6792;57.698;11.946;2023-10-31T08:50:49;10.80;53.00
13440;DHT22;6792;57.698;11.946;2023-10-31T08:53:18;10.80;53.00
13440;DHT22;6792;57.698;11.946;2023-10-31T08:55:47;10.90;53.00
13440;DHT22;6792;57.698;11.946;2023-10-31T08:58:16;10.90;52.90
13440;DHT22;6792;57.698;11.946;2023-10-31T09:00:46;10.90;52.90
13440;DHT22;6792;57.698;11.946;2023-10-31T09:03:16;10.90;52.90
13440;DHT22;6792;57.698;11.946;2023-10-31T09:05:45;10.90;52.80
13440;DHT22;6792;57.698;11.946;2023-10-31T09:08:14;10.90;52.70
13440;DHT22;6792;57.698;11.946;2023-10-31T09:10:44;10.90;52.70
13440;DHT22;6792;57.698;11.946;2023-10-31T09:13:14;10.90;52.70
13440;DHT22;6792;57.698;11.946;2023-10-31T09:15:44;10.80;52.70
13440;DHT22;6792;57.698;11.946;2023-10-31T09:18:13;10.80;52.80
13440;DHT22;6792;57.698;11.946;2023-10-31T09:20:43;10.80;52.80
13440;DHT22;6792;57.698;11.946;2023-10-31T09:23:12;10.80;52.80
13440;DHT22;6792;57.698;11.946;2023-10-31T09:25:41;10.90;52.90
13440;DHT22;6792;57.698;11.946;2023-10-31T09:28:11;10.90;52.90
13440;DHT22;6792;57.698;11.946;2023-10-31T09:30:40;10.90;52.90
13440;DHT22;6792;57.698;11.946;2023-10-31T09:33:13;10.90;52.90
13440;DHT22;6792;57.698;11.946;2023-10-31T09:35:42;10.90;52.90
13440;DHT22;6792;57.698;11.946;2023-10-31T09:38:12;10.90;52.90
13440;DHT22;6792;57.698;11.946;2023-10-31T09:40:41;10.90;52.90
13440;DHT22;6792;57.698;11.946;2023-10-31T09:43:10;10.90;52.30
13440;DHT22;6792;57.698;11.946;2023-10-31T09:45:58;10.90;52.90
13440;DHT22;6792;57.698;11.946;2023-10-31T09:48:29;10.90;53.00
13440;DHT22;6792;57.698;11.946;2023-10-31T09:50:59;10.90;53.00
13440;DHT22;6792;57.698;11.946;2023-10-31T09:53:30;10.90;53.10
13440;DHT22;6792;57.698;11.946;2023-10-31T09:56:01;10.90;53.10
13440;DHT22;6792;57.698;11.946;2023-10-31T09:58:31;10.90;53.10
13440;DHT22;6792;57.698;11.946;2023-10-31T10:01:00;10.90;53.10
13440;DHT22;6792;57.698;11.946;2023-10-31T10:03:30;10.90;53.00
13440;DHT22;6792;57.698;11.946;2023-10-31T10:05:59;11.00;53.20
13440;DHT22;6792;57.698;11.946;2023-10-31T10:08:29;11.00;53.10
13440;DHT22;6792;57.698;11.946;2023-10-31T10:10:58;11.00;53.00
13440;DHT22;6792;57.698;11.946;2023-10-31T10:13:29;11.00;53.00
13440;DHT22;6792;57.698;11.946;2023-10-31T10:15:59;11.10;53.00
13440;DHT22;6792;57.698;11.946;2023-10-31T10:18:29;11.10;53.00
13440;DHT22;6792;57.698;11.946;2023-10-31T10:21:00;11.10;53.00
13440;DHT22;6792;57.698;11.946;2023-10-31T10:23:29;11.10;53.00
13440;DHT22;6792;57.698;11.946;2023-10-31T10:26:00;11.20;53.10
13440;DHT22;6792;57.698;11.946;2023-10-31T10:28:30;11.20;53.10
13440;DHT22;6792;57.698;11.946;2023-10-31T10:31:01;11.20;53.10
13440;DHT22;6792;57.698;11.946;2023-10-31T10:33:30;11.20;53.10
13440;DHT22;6792;57.698;11.946;2023-10-31T10:36:00;11.20;53.00
13440;DHT22;6792;57.698;11.946;2023-10-31T10:38:31;11.20;53.00
13440;DHT22;6792;57.698;11.946;2023-10-31T10:41:05;11.20;53.10
13440;DHT22;6792;57.698;11.946;2023-10-31T10:43:37;11.20;53.10
13440;DHT22;6792;57.698;11.946;2023-10-31T10:46:08;11.20;53.10
13440;DHT22;6792;57.698;11.946;2023-10-31T10:48:40;11.20;53.10
13440;DHT22;6792;57.698;11.946;2023-10-31T10:51:13;11.30;53.20
13440;DHT22;6792;57.698;11.946;2023-10-31T10:53:48;11.30;53.20
13440;DHT22;6792;57.698;11.946;2023-10-31T10:56:21;11.30;53.20
13440;DHT22;6792;57.698;11.946;2023-10-31T10:58:55;11.30;52.60
13440;DHT22;6792;57.698;11.946;2023-10-31T11:01:25;11.40;53.20
13440;DHT22;6792;57.698;11.946;2023-10-31T11:03:56;11.40;53.10
13440;DHT22;6792;57.698;11.946;2023-10-31T11:06:26;11.40;53.00
13440;DHT22;6792;57.698;11.946;2023-10-31T11:08:57;11.40;52.50
13440;DHT22;6792;57.698;11.946;2023-10-31T11:11:26;11.40;53.00
13440;DHT22;6792;57.698;11.946;2023-10-31T11:13:56;11.50;53.10
13440;DHT22;6792;57.698;11.946;2023-10-31T11:16:30;11.50;53.10
13440;DHT22;6792;57.698;11.946;2023-10-31T11:19:00;11.50;53.10
13440;DHT22;6792;57.698;11.946;2023-10-31T11:21:30;11.50;53.10
13440;DHT22;6792;57.698;11.946;2023-10-31T11:24:00;11.50;53.10
13440;DHT22;6792;57.698;11.946;2023-10-31T11:26:31;11.60;52.50
13440;DHT22;6792;57.698;11.946;2023-10-31T11:29:09;11.60;53.00
13440;DHT22;6792;57.698;11.946;2023-10-31T11:31:39;11.60;53.00
13440;DHT22;6792;57.698;11.946;2023-10-31T11:34:09;11.60;53.00
13440;DHT22;6792;57.698;11.946;2023-10-31T11:36:38;11.60;52.50
13440;DHT22;6792;57.698;11.946;2023-10-31T11:39:14;11.70;53.10
13440;DHT22;6792;57.698;11.946;2023-10-31T11:41:49;11.70;53.10
13440;DHT22;6792;57.698;11.946;2023-10-31T11:44:19;11.70;53.10
13440;DHT22;6792;57.698;11.946;2023-10-31T11:46:51;11.70;53.00
13440;DHT22;6792;57.698;11.946;2023-10-31T11:52:30;11.80;52.50
13440;DHT22;6792;57.698;11.946;2023-10-31T11:55:18;11.80;53.00
13440;DHT22;6792;57.698;11.946;2023-10-31T11:58:14;11.80;53.00
13440;DHT22;6792;57.698;11.946;2023-10-31T12:00:45;11.80;53.00
13440;DHT22;6792;57.698;11.946;2023-10-31T12:03:17;11.80;52.90
13440;DHT22;6792;57.698;11.946;2023-10-31T12:05:53;11.90;52.90
13440;DHT22;6792;57.698;11.946;2023-10-31T12:08:27;11.90;52.40
13440;DHT22;6792;57.698;11.946;2023-10-31T12:11:13;11.90;53.00
13440;DHT22;6792;57.698;11.946;2023-10-31T12:13:52;11.90;53.00
13440;DHT22;6792;57.698;11.946;2023-10-31T12:16:24;11.80;53.20
13440;DHT22;6792;57.698;11.946;2023-10-31T12:21:43;11.90;52.50
13440;DHT22;6792;57.698;11.946;2023-10-31T12:24:16;11.90;53.00
13440;DHT22;6792;57.698;11.946;2023-10-31T12:26:46;12.00;52.90
13440;DHT22;6792;57.698;11.946;2023-10-31T12:29:18;11.90;52.90
13440;DHT22;6792;57.698;11.946;2023-10-31T12:31:50;11.90;52.90
13440;DHT22;6792;57.698;11.946;2023-10-31T12:34:27;11.90;52.90
13440;DHT22;6792;57.698;11.946;2023-10-31T12:36:57;11.90;53.00
13440;DHT22;6792;57.698;11.946;2023-10-31T12:39:28;12.00;53.00
13440;DHT22;6792;57.698;11.946;2023-10-31T12:41:58;12.00;52.90
13440;DHT22;6792;57.698;11.946;2023-10-31T12:44:28;11.90;53.00
13440;DHT22;6792;57.698;11.946;2023-10-31T12:46:58;12.00;53.00
13440;DHT22;6792;57.698;11.946;2023-10-31T12:49:27;12.00;53.00
13440;DHT22;6792;57.698;11.946;2023-10-31T12:51:58;11.90;52.90
13440;DHT22;6792;57.698;11.946;2023-10-31T12:54:33;12.00;53.00
13440;DHT22;6792;57.698;11.946;2023-10-31T12:57:04;12.00;53.00
13440;DHT22;6792;57.698;11.946;2023-10-31T12:59:34;11.90;52.50
13440;DHT22;6792;57.698;11.946;2023-10-31T13:02:06;11.90;53.00
13440;DHT22;6792;57.698;11.946;2023-10-31T13:04:42;11.90;53.10
13440;DHT22;6792;57.698;11.946;2023-10-31T13:07:12;11.90;53.20
13440;DHT22;6792;57.698;11.946;2023-10-31T13:09:41;11.90;52.60
13440;DHT22;6792;57.698;11.946;2023-10-31T13:12:11;11.90;53.20
13440;DHT22;6792;57.698;11.946;2023-10-31T13:14:44;11.90;53.20
13440;DHT22;6792;57.698;11.946;2023-10-31T13:19:55;11.90;52.70
13440;DHT22;6792;57.698;11.946;2023-10-31T13:22:24;11.90;53.20
13440;DHT22;6792;57.698;11.946;2023-10-31T13:24:53;11.90;53.30
13440;DHT22;6792;57.698;11.946;2023-10-31T13:27:22;11.90;53.40
13440;DHT22;6792;57.698;11.946;2023-10-31T13:29:53;11.90;52.80
13440;DHT22;6792;57.698;11.946;2023-10-31T13:32:23;11.90;53.40
13440;DHT22;6792;57.698;11.946;2023-10-31T13:34:52;11.90;53.40
13440;DHT22;6792;57.698;11.946;2023-10-31T13:37:21;11.80;53.50
13440;DHT22;6792;57.698;11.946;2023-10-31T13:39:50;11.80;52.90
13440;DHT22;6792;57.698;11.946;2023-10-31T13:42:20;11.80;53.50
13440;DHT22;6792;57.698;11.946;2023-10-31T13:44:49;11.80;53.50
13440;DHT22;6792;57.698;11.946;2023-10-31T13:47:18;11.80;53.50
13440;DHT22;6792;57.698;11.946;2023-10-31T13:49:47;11.80;53.50
13440;DHT22;6792;57.698;11.946;2023-10-31T13:52:21;11.80;53.60
13440;DHT22;6792;57.698;11.946;2023-10-31T13:54:50;11.80;53.60
13440;DHT22;6792;57.698;11.946;2023-10-31T13:57:20;11.90;53.50
13440;DHT22;6792;57.698;11.946;2023-10-31T13:59:51;11.90;53.60
13440;DHT22;6792;57.698;11.946;2023-10-31T14:02:22;11.90;53.60
13440;DHT22;6792;57.698;11.946;2023-10-31T14:04:51;11.90;53.70
13440;DHT22;6792;57.698;11.946;2023-10-31T14:07:22;11.90;53.70
13440;DHT22;6792;57.698;11.946;2023-10-31T14:09:53;11.90;53.70
13440;DHT22;6792;57.698;11.946;2023-10-31T14:12:24;11.90;53.60
13440;DHT22;6792;57.698;11.946;2023-10-31T14:14:54;11.80;53.10
13440;DHT22;6792;57.698;11.946;2023-10-31T14:17:27;11.90;53.80
13440;DHT22;6792;57.698;11.946;2023-10-31T14:19:56;11.90;53.70
13440;DHT22;6792;57.698;11.946;2023-10-31T14:22:26;11.90;53.70
13440;DHT22;6792;57.698;11.946;2023-10-31T14:24:55;11.90;53.70
13440;DHT22;6792;57.698;11.946;2023-10-31T14:27:25;11.90;53.70
13440;DHT22;6792;57.698;11.946;2023-10-31T14:29:54;11.90;53.70
13440;DHT22;6792;57.698;11.946;2023-10-31T14:32:26;11.80;54.20
13440;DHT22;6792;57.698;11.946;2023-10-31T14:34:56;11.80;53.80
13440;DHT22;6792;57.698;11.946;2023-10-31T14:37:25;11.80;53.80
13440;DHT22;6792;57.698;11.946;2023-10-31T14:39:55;11.80;53.70
13440;DHT22;6792;57.698;11.946;2023-10-31T14:42:25;11.80;53.80
13440;DHT22;6792;57.698;11.946;2023-10-31T14:44:54;11.80;53.80
13440;DHT22;6792;57.698;11.946;2023-10-31T14:47:25;11.70;53.80
13440;DHT22;6792;57.698;11.946;2023-10-31T14:49:54;11.80;53.90
13440;DHT22;6792;57.698;11.946;2023-10-31T14:52:24;11.80;54.00
13440;DHT22;6792;57.698;11.946;2023-10-31T14:54:53;11.70;53.90
13440;DHT22;6792;57.698;11.946;2023-10-31T14:57:26;11.80;53.90
13440;DHT22;6792;57.698;11.946;2023-10-31T14:59:55;11.70;53.90
13440;DHT22;6792;57.698;11.946;2023-10-31T15:02:25;11.70;53.90
13440;DHT22;6792;57.698;11.946;2023-10-31T15:04:54;11.70;53.90
13440;DHT22;6792;57.698;11.946;2023-10-31T15:07:24;11.70;53.90
13440;DHT22;6792;57.698;11.946;2023-10-31T15:09:53;11.60;53.90
13440;DHT22;6792;57.698;11.946;2023-10-31T15:12:23;11.60;54.00
13440;DHT22;6792;57.698;11.946;2023-10-31T15:14:52;11.60;54.00
13440;DHT22;6792;57.698;11.946;2023-10-31T15:17:22;11.60;54.00
13440;DHT22;6792;57.698;11.946;2023-10-31T15:19:52;11.60;54.00
13440;DHT22;6792;57.698;11.946;2023-10-31T15:22:21;11.60;54.00
13440;DHT22;6792;57.698;11.946;2023-10-31T15:24:50;11.50;54.60
13440;DHT22;6792;57.698;11.946;2023-10-31T15:27:19;11.50;54.10
13440;DHT22;6792;57.698;11.946;2023-10-31T15:29:48;11.50;54.10
13440;DHT22;6792;57.698;11.946;2023-10-31T15:32:18;11.40;54.10
13440;DHT22;6792;57.698;11.946;2023-10-31T15:34:47;11.40;54.20
13440;DHT22;6792;57.698;11.946;2023-10-31T15:40:08;11.40;53.70
13440;DHT22;6792;57.698;11.946;2023-10-31T15:42:42;11.40;54.30
13440;DHT22;6792;57.698;11.946;2023-10-31T15:45:14;11.40;54.30
13440;DHT22;6792;57.698;11.946;2023-10-31T15:47:43;11.40;54.30
13440;DHT22;6792;57.698;11.946;2023-10-31T15:50:14;11.40;54.20
13440;DHT22;6792;57.698;11.946;2023-10-31T15:52:44;11.40;54.20
13440;DHT22;6792;57.698;11.946;2023-10-31T15:55:15;11.40;54.20
13440;DHT22;6792;57.698;11.946;2023-10-31T15:57:52;11.40;54.10
13440;DHT22;6792;57.698;11.946;2023-10-31T16:00:22;11.40;54.20
13440;DHT22;6792;57.698;11.946;2023-10-31T16:02:51;11.40;54.10
13440;DHT22;6792;57.698;11.946;2023-10-31T16:05:20;11.40;54.10
13440;DHT22;6792;57.698;11.946;2023-10-31T16:07:51;11.30;54.10
13440;DHT22;6792;57.698;11.946;2023-10-31T16:10:20;11.30;53.60
13440;DHT22;6792;57.698;11.946;2023-10-31T16:12:50;11.20;54.10
13440;DHT22;6792;57.698;11.946;2023-10-31T16:15:19;11.20;54.10
13440;DHT22;6792;57.698;11.946;2023-10-31T16:17:48;11.20;54.20
13440;DHT22;6792;57.698;11.946;2023-10-31T16:20:17;11.20;53.60
13440;DHT22;6792;57.698;11.946;2023-10-31T16:22:46;11.20;53.60
13440;DHT22;6792;57.698;11.946;2023-10-31T16:25:16;11.20;53.70
13440;DHT22;6792;57.698;11.946;2023-10-31T16:27:45;11.20;53.70